Time;durP1;ratioP1;P1;durP2;ratioP2;P2;SDS_P1;SDS_P2;PMS_P1;PMS_P2;Temp;Humidity;BMP_temperature;BMP_pressure;BME280_temperature;BME280_humidity;BME280_pressure;Samples;Min_cycle;Max_cycle;Signal;HPM_P1;HPM_P2
2022/11/12 00:01:21;;;;;;;15.40;10.57;;;6.30;99.90;;;;;;5049290;28;20033;-68
2022/11/12 00:03:47;;;;;;;12.55;9.27;;;6.30;99.90;;;;;;5051019;28;20040;-68
2022/11/12 00:06:13;;;;;;;13.07;9.30;;;6.20;99.90;;;;;;5047580;28;20037;-68
2022/11/12 00:08:39;;;;;;;15.98;9.50;;;6.10;99.90;;;;;;5049267;28;20041;-68
2022/11/12 00:11:04;;;;;;;15.07;10.18;;;6.00;99.90;;;;;;5040630;28;20076;-68
2022/11/12 00:13:30;;;;;;;12.85;8.38;;;6.00;99.90;;;;;;5048008;28;20057;-68
2022/11/12 00:15:56;;;;;;;14.73;9.70;;;5.90;99.90;;;;;;5046842;28;20105;-68
2022/11/12 00:18:22;;;;;;;12.85;8.40;;;5.80;99.90;;;;;;5066110;28;20057;-68
2022/11/12 00:20:48;;;;;;;11.25;7.95;;;5.70;99.90;;;;;;5053048;28;20052;-68
2022/11/12 00:23:14;;;;;;;12.13;8.75;;;5.50;99.90;;;;;;5033987;28;20041;-68
2022/11/12 00:25:39;;;;;;;14.93;9.70;;;5.60;99.90;;;;;;5045014;28;20060;-68
2022/11/12 00:28:08;;;;;;;13.73;9.95;;;5.60;99.90;;;;;;5049544;28;20041;-68
2022/11/12 00:30:36;;;;;;;12.43;9.57;;;5.60;99.90;;;;;;5058692;28;20044;-68
2022/11/12 00:33:03;;;;;;;11.77;8.68;;;5.50;99.90;;;;;;5062427;28;20052;-68
2022/11/12 00:35:30;;;;;;;10.73;6.70;;;5.40;99.90;;;;;;5049229;28;20047;-68
2022/11/12 00:37:56;;;;;;;9.68;7.05;;;5.20;99.90;;;;;;5034921;28;20100;-68
2022/11/12 00:40:22;;;;;;;13.73;8.55;;;5.00;99.90;;;;;;5058678;28;20058;-68
2022/11/12 00:42:51;;;;;;;11.90;7.68;;;5.00;99.90;;;;;;5053937;28;20057;-68
2022/11/12 00:45:17;;;;;;;12.65;9.82;;;4.90;99.90;;;;;;5062166;28;20041;-68
2022/11/12 00:47:43;;;;;;;13.45;8.73;;;4.80;99.90;;;;;;5063553;28;20044;-68
2022/11/12 00:50:09;;;;;;;11.88;8.32;;;4.80;99.90;;;;;;5062205;28;20037;-68
2022/11/12 00:52:35;;;;;;;15.80;10.60;;;4.80;99.90;;;;;;5054934;28;20045;-68
2022/11/12 00:55:01;;;;;;;14.13;10.80;;;4.90;99.90;;;;;;5057599;28;20415;-68
2022/11/12 00:57:26;;;;;;;15.77;9.27;;;5.00;99.90;;;;;;5053441;28;20048;-68
2022/11/12 00:59:52;;;;;;;17.55;12.93;;;4.90;99.90;;;;;;5058015;28;20046;-68
2022/11/12 01:02:19;;;;;;;16.88;11.55;;;5.00;99.90;;;;;;5054211;28;20110;-68
2022/11/12 01:04:45;;;;;;;16.15;11.77;;;5.10;99.90;;;;;;5063274;28;20482;-68
2022/11/12 01:07:11;;;;;;;14.18;10.77;;;5.00;99.90;;;;;;5059691;28;20041;-68
2022/11/12 01:09:36;;;;;;;15.30;10.80;;;5.00;99.90;;;;;;5047749;28;20045;-68
2022/11/12 01:12:02;;;;;;;19.00;12.35;;;5.00;99.90;;;;;;5053099;28;20099;-68
2022/11/12 01:14:28;;;;;;;19.00;12.38;;;5.10;99.90;;;;;;5063407;28;20053;-68
2022/11/12 01:16:53;;;;;;;19.33;14.20;;;5.10;99.90;;;;;;5054327;28;20061;-68
2022/11/12 01:19:19;;;;;;;14.60;11.55;;;5.10;99.90;;;;;;5054451;28;20052;-68
2022/11/12 01:21:45;;;;;;;17.98;13.80;;;5.10;99.90;;;;;;5062635;28;20043;-68
2022/11/12 01:24:11;;;;;;;23.85;15.48;;;5.30;99.90;;;;;;5046987;28;20092;-69
2022/11/12 01:26:37;;;;;;;25.60;16.80;;;5.50;99.90;;;;;;5043532;28;20042;-68
2022/11/12 01:29:03;;;;;;;22.70;16.30;;;5.60;99.90;;;;;;5043074;28;20050;-68
2022/11/12 01:31:35;;;;;;;16.85;11.90;;;5.70;99.90;;;;;;5042675;28;20493;-68
2022/11/12 01:34:03;;;;;;;19.55;14.18;;;5.60;99.90;;;;;;5042461;28;20061;-68
2022/11/12 01:36:32;;;;;;;26.83;17.92;;;5.50;99.90;;;;;;5042818;28;20065;-68
2022/11/12 01:38:58;;;;;;;26.70;18.90;;;5.60;99.90;;;;;;5045691;28;20049;-68
2022/11/12 01:41:28;;;;;;;25.55;17.02;;;5.80;99.90;;;;;;5045193;28;20059;-68
2022/11/12 01:44:13;;;;;;;26.75;17.95;;;5.90;99.90;;;;;;5054035;28;20080;-68
2022/11/12 01:47:16;;;;;;;25.50;18.77;;;5.90;99.90;;;;;;5057251;28;20485;-68
2022/11/12 01:50:12;;;;;;;24.13;18.05;;;5.90;99.90;;;;;;5037644;28;20072;-68
2022/11/12 01:52:49;;;;;;;21.02;14.20;;;6.00;99.90;;;;;;5067205;28;20563;-68
2022/11/12 01:55:22;;;;;;;15.75;10.07;;;5.80;99.90;;;;;;5045015;28;20551;-68
2022/11/12 01:57:56;;;;;;;16.85;12.73;;;5.60;99.90;;;;;;5047922;28;20046;-68
2022/11/12 02:00:22;;;;;;;18.17;13.52;;;5.40;99.90;;;;;;5050764;28;20052;-68
2022/11/12 02:02:53;;;;;;;17.67;13.48;;;5.40;99.90;;;;;;5046463;28;20053;-68
2022/11/12 02:05:21;;;;;;;21.73;14.60;;;5.20;99.90;;;;;;5046816;28;20103;-68
2022/11/12 02:07:48;;;;;;;20.83;13.95;;;5.30;99.90;;;;;;5054532;28;20054;-68
2022/11/12 02:10:14;;;;;;;17.60;14.80;;;5.30;99.90;;;;;;5054477;28;20122;-68
2022/11/12 02:15:25;;;;;;;20.63;13.07;;;5.10;99.90;;;;;;5046953;28;20533;-68
2022/11/12 02:17:51;;;;;;;16.90;11.00;;;5.00;99.90;;;;;;5043545;28;20053;-68
2022/11/12 02:20:17;;;;;;;15.55;11.25;;;5.00;99.90;;;;;;5056797;28;20049;-68
2022/11/12 02:22:43;;;;;;;14.40;11.23;;;4.90;99.90;;;;;;5062234;28;20080;-68
2022/11/12 02:25:13;;;;;;;17.27;11.48;;;4.80;99.90;;;;;;5048486;28;20536;-68
2022/11/12 02:27:39;;;;;;;17.85;12.38;;;4.80;99.90;;;;;;5055951;28;20045;-68
2022/11/12 02:30:05;;;;;;;19.83;13.43;;;4.80;99.90;;;;;;5061672;28;20052;-68
2022/11/12 02:32:31;;;;;;;17.70;13.45;;;4.80;99.90;;;;;;5048733;28;20111;-68
2022/11/12 02:34:56;;;;;;;19.67;13.73;;;4.90;99.90;;;;;;5060830;28;20041;-68
2022/11/12 02:37:22;;;;;;;15.15;12.30;;;5.10;99.90;;;;;;5047878;28;20108;-68
2022/11/12 02:39:48;;;;;;;13.15;9.82;;;5.00;99.90;;;;;;5048564;28;20053;-68
2022/11/12 02:42:13;;;;;;;12.00;10.43;;;4.80;99.90;;;;;;5060353;28;20060;-68
2022/11/12 02:44:39;;;;;;;11.65;9.68;;;4.70;99.90;;;;;;5062734;28;20124;-68
2022/11/12 02:47:05;;;;;;;12.52;8.85;;;4.50;99.90;;;;;;5052837;28;20048;-68
2022/11/12 02:49:31;;;;;;;13.43;9.38;;;4.20;99.90;;;;;;5063513;28;20102;-68
2022/11/12 02:51:56;;;;;;;10.55;8.93;;;4.20;99.90;;;;;;5055054;28;20045;-68
2022/11/12 02:54:22;;;;;;;12.05;9.43;;;4.10;99.90;;;;;;5061300;28;20075;-68
2022/11/12 02:56:48;;;;;;;11.63;9.90;;;4.20;99.90;;;;;;5052446;28;20112;-68
2022/11/12 02:59:13;;;;;;;14.07;10.25;;;4.10;99.90;;;;;;5066858;28;20049;-68
2022/11/12 03:01:39;;;;;;;14.63;11.40;;;4.10;99.90;;;;;;5060514;28;20040;-68
2022/11/12 03:04:05;;;;;;;18.13;10.02;;;4.20;99.90;;;;;;5048276;28;20045;-68
2022/11/12 03:06:30;;;;;;;11.30;8.57;;;4.20;99.90;;;;;;5046131;28;20114;-68
2022/11/12 03:08:56;;;;;;;10.73;8.13;;;4.20;99.90;;;;;;5034748;28;20071;-68
2022/11/12 03:11:22;;;;;;;13.20;8.40;;;4.20;99.90;;;;;;5048584;28;20442;-68
2022/11/12 03:13:47;;;;;;;9.75;7.72;;;4.00;99.90;;;;;;5046729;28;20529;-68
2022/11/12 03:16:13;;;;;;;20.27;7.97;;;3.80;99.90;;;;;;5058628;28;20044;-68
2022/11/12 03:18:39;;;;;;;9.45;7.65;;;3.70;99.90;;;;;;5046982;28;20103;-68
2022/11/12 03:21:05;;;;;;;9.35;6.82;;;3.60;99.90;;;;;;5054480;28;20049;-68
2022/11/12 03:23:30;;;;;;;8.20;7.22;;;3.60;99.90;;;;;;5052500;28;20393;-68
2022/11/12 03:25:56;;;;;;;9.27;6.75;;;3.60;99.90;;;;;;5054795;28;20046;-68
2022/11/12 03:28:22;;;;;;;9.40;8.23;;;3.60;99.90;;;;;;5061588;28;20087;-68
2022/11/12 03:30:48;;;;;;;7.55;6.55;;;3.60;99.90;;;;;;5064904;28;20044;-68
2022/11/12 03:33:14;;;;;;;6.90;6.07;;;3.50;99.90;;;;;;5059450;28;20108;-68
2022/11/12 03:35:40;;;;;;;8.05;7.22;;;3.40;99.90;;;;;;5057574;28;20559;-68
2022/11/12 03:38:07;;;;;;;8.98;7.60;;;3.40;99.90;;;;;;5037430;28;20081;-68
2022/11/12 03:40:32;;;;;;;10.75;7.80;;;3.30;99.90;;;;;;5055367;28;20080;-68
2022/11/12 03:42:58;;;;;;;11.30;8.45;;;3.40;99.90;;;;;;5058880;28;20049;-68
2022/11/12 03:45:26;;;;;;;9.10;7.55;;;3.50;99.90;;;;;;5054288;28;20045;-68
2022/11/12 03:47:53;;;;;;;9.75;8.02;;;3.60;99.90;;;;;;5060674;28;20048;-68
2022/11/12 03:50:23;;;;;;;6.75;6.13;;;3.60;99.90;;;;;;5046207;28;20501;-68
2022/11/12 03:52:51;;;;;;;8.57;6.63;;;3.60;99.90;;;;;;5056454;28;20053;-68
2022/11/12 03:55:19;;;;;;;9.07;7.55;;;3.50;99.90;;;;;;5056789;28;20044;-68
2022/11/12 03:57:47;;;;;;;39.75;8.50;;;3.40;99.90;;;;;;5064889;28;20057;-68
2022/11/12 04:00:13;;;;;;;21.17;9.38;;;3.50;99.90;;;;;;5052520;28;20054;-68
2022/11/12 04:02:39;;;;;;;18.55;9.75;;;3.30;99.90;;;;;;5045904;28;20108;-68
2022/11/12 04:10:43;;;;;;;11.20;9.00;;;3.40;99.90;;;;;;5054484;28;20053;-68
2022/11/12 04:13:27;;;;;;;12.52;8.90;;;3.40;99.90;;;;;;5048896;28;20524;-68
2022/11/12 04:21:49;;;;;;;12.02;8.98;;;3.30;99.90;;;;;;5065224;28;20101;-68
2022/11/12 04:27:29;;;;;;;14.82;8.57;;;3.40;99.90;;;;;;5064101;28;20230;-68
2022/11/12 04:32:51;;;;;;;13.77;9.00;;;3.40;99.90;;;;;;5037024;28;20462;-68
2022/11/12 04:35:18;;;;;;;12.35;9.23;;;3.30;99.90;;;;;;5051100;28;20033;-68
2022/11/12 04:37:44;;;;;;;12.70;9.10;;;3.30;99.90;;;;;;5049792;28;20084;-68
2022/11/12 04:45:46;;;;;;;10.38;8.25;;;3.20;99.90;;;;;;5042757;28;20055;-68
2022/11/12 04:48:12;;;;;;;17.40;9.50;;;3.30;99.90;;;;;;5046494;28;20088;-68
2022/11/12 04:50:39;;;;;;;38.67;9.80;;;3.30;99.90;;;;;;5057617;28;20037;-68
2022/11/12 04:53:05;;;;;;;28.80;8.48;;;3.40;99.90;;;;;;5043893;28;20094;-68
2022/11/12 04:55:31;;;;;;;13.93;8.00;;;3.50;99.90;;;;;;5056616;28;20060;-68
2022/11/12 04:57:57;;;;;;;19.33;8.52;;;3.50;99.90;;;;;;5044844;28;20086;-68
2022/11/12 05:00:22;;;;;;;12.43;9.23;;;3.30;99.90;;;;;;5056875;28;20112;-68
2022/11/12 05:02:49;;;;;;;11.77;9.50;;;3.40;99.90;;;;;;5044472;28;20047;-68
2022/11/12 05:05:15;;;;;;;22.33;9.20;;;3.40;99.90;;;;;;5046229;28;20049;-68
2022/11/12 05:07:40;;;;;;;10.82;7.85;;;3.30;99.90;;;;;;5044139;28;20057;-67
2022/11/12 05:10:07;;;;;;;9.77;7.50;;;3.20;99.90;;;;;;5045065;28;20462;-68
2022/11/12 05:12:32;;;;;;;9.32;7.32;;;3.00;99.90;;;;;;5063506;28;20053;-67
2022/11/12 05:14:58;;;;;;;12.35;8.05;;;2.90;99.90;;;;;;5048359;28;20045;-68
2022/11/12 05:17:24;;;;;;;11.15;7.72;;;2.90;99.90;;;;;;5064464;28;20052;-68
2022/11/12 05:19:49;;;;;;;10.82;8.40;;;2.90;99.90;;;;;;5051119;28;20046;-68
2022/11/12 05:22:15;;;;;;;60.03;10.90;;;2.90;99.90;;;;;;5049684;28;20101;-68
2022/11/12 05:24:42;;;;;;;41.60;10.13;;;2.90;99.90;;;;;;5064878;28;20056;-68
2022/11/12 05:27:11;;;;;;;14.90;11.15;;;3.00;99.90;;;;;;5063810;28;20112;-68
2022/11/12 05:29:37;;;;;;;14.05;10.10;;;3.20;99.90;;;;;;5063896;28;20037;-68
2022/11/12 05:32:04;;;;;;;10.48;8.45;;;3.40;99.90;;;;;;5058044;28;20108;-68
2022/11/12 05:34:30;;;;;;;11.57;9.38;;;3.40;99.90;;;;;;5056998;28;20056;-68
2022/11/12 05:36:56;;;;;;;13.18;10.15;;;3.40;99.90;;;;;;5077234;28;20072;-68
2022/11/12 05:39:22;;;;;;;9.85;6.38;;;3.40;99.90;;;;;;5045672;28;20057;-68
2022/11/12 05:41:48;;;;;;;6.60;5.75;;;3.40;99.90;;;;;;5038153;28;20038;-68
2022/11/12 05:44:14;;;;;;;5.82;5.22;;;3.30;99.90;;;;;;5032588;28;20609;-68
2022/11/12 05:46:39;;;;;;;5.38;4.57;;;3.20;99.90;;;;;;5069636;28;20069;-68
2022/11/12 05:49:05;;;;;;;5.50;4.93;;;3.10;99.90;;;;;;5036599;28;20050;-68
2022/11/12 05:51:31;;;;;;;6.97;5.65;;;3.00;99.90;;;;;;5044894;28;20041;-68
2022/11/12 05:53:56;;;;;;;8.02;5.65;;;2.90;99.90;;;;;;5045903;28;20398;-68
2022/11/12 05:56:22;;;;;;;11.57;6.15;;;2.90;99.90;;;;;;5045658;28;20045;-68
2022/11/12 05:58:48;;;;;;;14.40;6.63;;;2.90;99.90;;;;;;5045048;28;20049;-68
2022/11/12 06:01:14;;;;;;;34.85;6.43;;;2.90;99.90;;;;;;5030116;28;20293;-68
2022/11/12 06:03:40;;;;;;;14.75;5.28;;;2.80;99.90;;;;;;5053426;28;20124;-68
2022/11/12 06:06:06;;;;;;;7.22;4.88;;;2.70;99.90;;;;;;5062613;28;20049;-68
2022/11/12 06:08:31;;;;;;;16.92;6.18;;;2.70;99.90;;;;;;5044852;28;20048;-68
2022/11/12 06:10:57;;;;;;;10.88;5.43;;;2.60;99.90;;;;;;5045868;28;20045;-68
2022/11/12 06:13:24;;;;;;;6.15;5.00;;;2.60;99.90;;;;;;5043328;28;20075;-68
2022/11/12 06:15:50;;;;;;;7.82;6.35;;;2.50;99.90;;;;;;5042778;28;20095;-68
2022/11/12 06:18:16;;;;;;;7.88;5.80;;;2.50;99.90;;;;;;5041920;28;20057;-68
2022/11/12 06:20:42;;;;;;;6.82;4.85;;;2.50;99.90;;;;;;5047089;28;20045;-68
2022/11/12 06:23:07;;;;;;;6.10;5.05;;;2.40;99.90;;;;;;5054594;28;20053;-68
2022/11/12 06:25:33;;;;;;;6.30;5.25;;;2.40;99.90;;;;;;5043253;28;20038;-68
2022/11/12 06:27:59;;;;;;;5.70;5.10;;;2.30;99.90;;;;;;5054750;28;20045;-68
2022/11/12 06:30:24;;;;;;;7.10;4.45;;;2.30;99.90;;;;;;5056008;28;20054;-68
2022/11/12 06:32:50;;;;;;;6.97;5.50;;;2.20;99.90;;;;;;5062148;28;20132;-68
2022/11/12 06:35:17;;;;;;;7.05;5.07;;;2.20;99.90;;;;;;5063381;28;20044;-67
2022/11/12 06:37:47;;;;;;;8.27;6.35;;;2.20;99.90;;;;;;5042133;28;20045;-68
2022/11/12 06:40:13;;;;;;;8.27;6.22;;;2.30;99.90;;;;;;5039744;28;20049;-68
2022/11/12 06:42:39;;;;;;;6.85;5.68;;;2.30;99.90;;;;;;5048434;28;20121;-67
2022/11/12 06:45:06;;;;;;;7.07;5.88;;;2.20;99.90;;;;;;5055555;28;20080;-67
2022/11/12 06:47:32;;;;;;;7.00;4.90;;;2.20;99.90;;;;;;5063379;28;20474;-67
2022/11/12 06:49:57;;;;;;;11.10;5.20;;;2.20;99.90;;;;;;5062037;28;20049;-68
2022/11/12 06:52:23;;;;;;;7.47;5.55;;;2.10;99.90;;;;;;5049282;28;20052;-67
2022/11/12 06:54:49;;;;;;;11.93;6.07;;;2.10;99.90;;;;;;5051403;28;20049;-68
2022/11/12 06:57:15;;;;;;;18.92;6.53;;;2.10;99.90;;;;;;5061804;28;20075;-68
2022/11/12 06:59:40;;;;;;;20.10;8.05;;;2.10;99.90;;;;;;5049737;28;20057;-67
2022/11/12 07:02:06;;;;;;;72.72;12.50;;;2.20;99.90;;;;;;5042609;28;20095;-68
2022/11/12 07:04:32;;;;;;;80.03;12.02;;;2.30;99.90;;;;;;5031175;28;20057;-68
2022/11/12 07:06:57;;;;;;;75.47;16.08;;;2.30;99.90;;;;;;5053449;28;20037;-67
2022/11/12 07:09:23;;;;;;;62.33;16.70;;;2.30;99.90;;;;;;5041377;28;20045;-68
2022/11/12 07:11:49;;;;;;;33.67;12.45;;;2.40;99.90;;;;;;5050745;28;20048;-67
2022/11/12 07:14:14;;;;;;;21.13;12.50;;;2.40;99.90;;;;;;5054720;28;20049;-68
2022/11/12 07:16:40;;;;;;;19.33;12.73;;;2.40;99.90;;;;;;5055816;28;20045;-68
2022/11/12 07:19:06;;;;;;;33.85;13.02;;;2.60;99.90;;;;;;5054452;28;20053;-67
2022/11/12 07:21:32;;;;;;;18.25;11.52;;;2.60;99.90;;;;;;5053836;28;20078;-68
2022/11/12 07:23:57;;;;;;;25.67;10.82;;;2.60;99.90;;;;;;5056020;28;20120;-68
2022/11/12 07:26:26;;;;;;;39.92;12.32;;;2.50;99.90;;;;;;5056223;28;20040;-67
2022/11/12 07:28:55;;;;;;;23.30;12.00;;;2.60;99.90;;;;;;5054970;28;20045;-68
2022/11/12 07:31:21;;;;;;;32.88;11.95;;;2.60;99.90;;;;;;5057114;28;20055;-68
2022/11/12 07:33:47;;;;;;;39.25;9.40;;;2.60;99.90;;;;;;5038397;28;20049;-68
2022/11/12 07:36:15;;;;;;;37.42;9.90;;;2.60;99.90;;;;;;5058208;28;20036;-67
2022/11/12 07:38:42;;;;;;;22.77;11.02;;;2.60;99.90;;;;;;5043086;28;20049;-68
2022/11/12 07:41:11;;;;;;;20.10;10.20;;;2.60;99.90;;;;;;5053561;28;20037;-68
2022/11/12 07:43:38;;;;;;;24.40;9.25;;;2.60;99.90;;;;;;5055267;28;20041;-68
2022/11/12 07:46:07;;;;;;;13.93;9.00;;;2.50;99.90;;;;;;5058459;28;20044;-68
2022/11/12 07:48:33;;;;;;;12.55;8.52;;;2.50;99.90;;;;;;5056989;28;20037;-67
2022/11/12 07:51:10;;;;;;;26.95;9.80;;;2.60;99.90;;;;;;5054183;28;20052;-68
2022/11/12 07:53:36;;;;;;;49.67;12.98;;;2.70;99.90;;;;;;5053966;28;20057;-68
2022/11/12 07:56:03;;;;;;;104.25;14.40;;;2.70;99.90;;;;;;5059602;28;20068;-68
2022/11/12 07:58:31;;;;;;;131.57;17.63;;;2.70;99.90;;;;;;5054717;28;20045;-68
2022/11/12 08:00:57;;;;;;;106.60;15.88;;;2.70;99.90;;;;;;5052536;28;20051;-67
2022/11/12 08:03:23;;;;;;;77.97;15.32;;;2.80;99.90;;;;;;5052290;28;20053;-68
2022/11/12 08:05:49;;;;;;;74.78;14.13;;;2.90;99.90;;;;;;5062347;28;20052;-68
2022/11/12 08:08:14;;;;;;;77.35;14.40;;;2.90;99.90;;;;;;5051672;28;20045;-68
2022/11/12 08:10:40;;;;;;;78.03;13.63;;;3.00;99.90;;;;;;5015213;28;20092;-67
2022/11/12 08:13:06;;;;;;;81.70;15.85;;;3.00;99.90;;;;;;5015435;28;20065;-69
2022/11/12 08:15:32;;;;;;;47.00;13.27;;;3.00;99.90;;;;;;5024133;28;20053;-70
2022/11/12 08:17:57;;;;;;;29.08;13.18;;;3.10;99.90;;;;;;5023667;28;20061;-70
2022/11/12 08:20:23;;;;;;;37.10;14.73;;;3.20;99.90;;;;;;5026558;28;20137;-65
2022/11/12 08:22:49;;;;;;;22.23;12.85;;;3.30;99.90;;;;;;5026150;28;20037;-67
2022/11/12 08:25:15;;;;;;;23.33;13.02;;;3.50;99.90;;;;;;5023777;28;20148;-67
2022/11/12 08:27:41;;;;;;;17.88;12.00;;;3.70;99.90;;;;;;5025635;28;20037;-67
2022/11/12 08:30:07;;;;;;;24.83;15.18;;;3.80;99.90;;;;;;5026258;28;20068;-67
2022/11/12 08:32:33;;;;;;;25.13;19.50;;;3.80;99.90;;;;;;5024155;28;20042;-66
2022/11/12 08:34:59;;;;;;;22.05;14.85;;;4.00;99.90;;;;;;5025418;28;20056;-67
2022/11/12 08:37:24;;;;;;;19.45;16.45;;;4.00;99.90;;;;;;5021319;28;20042;-67
2022/11/12 08:39:50;;;;;;;29.60;23.73;;;4.20;99.90;;;;;;5012872;28;20042;-66
2022/11/12 08:42:16;;;;;;;28.30;23.63;;;4.30;99.90;;;;;;5024256;28;20046;-66
2022/11/12 08:44:41;;;;;;;34.70;26.75;;;4.40;99.90;;;;;;5023990;28;20093;-66
2022/11/12 08:47:07;;;;;;;24.50;19.55;;;4.40;99.90;;;;;;5022853;28;20101;-66
2022/11/12 08:49:33;;;;;;;17.15;14.73;;;4.60;99.90;;;;;;5023682;28;20038;-66
2022/11/12 08:51:58;;;;;;;24.23;17.60;;;4.70;99.90;;;;;;5015814;28;20061;-66
2022/11/12 08:54:24;;;;;;;21.55;17.48;;;4.70;99.90;;;;;;5017667;28;20422;-66
2022/11/12 08:56:50;;;;;;;16.98;13.07;;;4.80;99.90;;;;;;5023800;28;20053;-68
2022/11/12 08:59:16;;;;;;;17.42;12.13;;;4.90;99.90;;;;;;5024332;28;20073;-68
2022/11/12 09:01:42;;;;;;;12.52;10.23;;;5.00;99.90;;;;;;5023409;28;20045;-69
2022/11/12 09:04:07;;;;;;;13.88;10.25;;;5.00;99.90;;;;;;5023800;28;20049;-69
2022/11/12 09:06:33;;;;;;;13.85;11.05;;;5.00;99.90;;;;;;5023718;28;20045;-71
2022/11/12 09:08:59;;;;;;;17.05;12.45;;;5.20;99.90;;;;;;5018158;28;20057;-67
2022/11/12 09:11:24;;;;;;;14.93;11.80;;;5.20;99.90;;;;;;5053886;28;20046;-67
2022/11/12 09:13:53;;;;;;;20.52;13.07;;;5.30;99.90;;;;;;5019807;28;20050;-67
2022/11/12 09:16:20;;;;;;;18.30;13.40;;;5.30;99.90;;;;;;5006472;28;20501;-68
2022/11/12 09:18:46;;;;;;;18.42;14.27;;;5.40;99.90;;;;;;5049630;28;20044;-68
2022/11/12 09:21:13;;;;;;;22.23;16.73;;;5.50;99.90;;;;;;5049299;28;20794;-68
2022/11/12 09:23:38;;;;;;;17.88;14.25;;;5.60;99.90;;;;;;5051928;28;20088;-68
2022/11/12 09:26:05;;;;;;;18.77;15.20;;;5.60;99.90;;;;;;5035993;28;20464;-68
2022/11/12 09:28:32;;;;;;;24.60;14.98;;;5.80;99.90;;;;;;5051182;28;20049;-68
2022/11/12 09:30:58;;;;;;;19.02;14.65;;;5.80;99.90;;;;;;5050652;28;20056;-67
2022/11/12 09:33:26;;;;;;;19.80;15.55;;;5.80;99.90;;;;;;5053264;28;20048;-69
2022/11/12 09:35:53;;;;;;;17.92;14.10;;;6.00;99.90;;;;;;5050709;28;20042;-66
2022/11/12 09:38:19;;;;;;;17.05;13.82;;;6.00;99.90;;;;;;5027125;28;20076;-66
2022/11/12 09:41:14;;;;;;;18.58;13.85;;;6.10;99.90;;;;;;5051816;28;20059;-66
2022/11/12 09:43:50;;;;;;;20.70;15.65;;;6.20;99.90;;;;;;5054419;28;20041;-66
2022/11/12 09:46:51;;;;;;;18.88;15.35;;;6.30;99.90;;;;;;5040312;28;20086;-66
2022/11/12 09:49:24;;;;;;;17.55;14.73;;;6.50;99.90;;;;;;5033233;28;20049;-66
2022/11/12 09:51:59;;;;;;;19.33;14.95;;;6.60;99.90;;;;;;5034792;28;20061;-66
2022/11/12 09:54:29;;;;;;;19.80;16.05;;;6.70;99.90;;;;;;5043811;28;20075;-66
2022/11/12 09:56:55;;;;;;;19.73;16.75;;;6.80;99.90;;;;;;5038216;28;20735;-66
2022/11/12 09:59:23;;;;;;;22.13;16.58;;;7.00;99.90;;;;;;5046496;28;20075;-66
2022/11/12 10:02:33;;;;;;;21.42;16.80;;;7.00;99.90;;;;;;5037315;28;20124;-66
2022/11/12 10:05:11;;;;;;;24.02;17.58;;;7.20;99.90;;;;;;5026301;28;20054;-66
2022/11/12 10:07:41;;;;;;;23.40;17.13;;;7.30;99.90;;;;;;5008318;28;20080;-65
2022/11/12 10:10:40;;;;;;;21.98;15.75;;;7.40;99.90;;;;;;5030222;28;20046;-65
2022/11/12 10:13:24;;;;;;;22.73;16.95;;;7.50;99.90;;;;;;5022920;28;20063;-66
2022/11/12 10:19:22;;;;;;;21.38;17.08;;;7.80;99.90;;;;;;5053162;28;20371;-65
2022/11/12 10:22:23;;;;;;;20.70;17.13;;;8.00;99.90;;;;;;5044781;28;20304;-66
2022/11/12 10:24:49;;;;;;;20.75;15.80;;;8.20;99.90;;;;;;4970899;28;20058;-65
2022/11/12 10:27:19;;;;;;;21.92;17.42;;;8.40;99.90;;;;;;4997541;28;20066;-65
2022/11/12 10:30:18;;;;;;;25.25;15.10;;;8.50;99.90;;;;;;4969295;28;20046;-65
2022/11/12 10:32:45;;;;;;;21.80;16.02;;;8.60;99.90;;;;;;4963517;28;20077;-66
2022/11/12 10:35:15;;;;;;;19.90;15.80;;;8.70;99.90;;;;;;4995016;28;20652;-66
2022/11/12 10:38:01;;;;;;;22.63;15.98;;;8.80;99.90;;;;;;4968791;28;20042;-66
2022/11/12 10:40:31;;;;;;;20.17;16.38;;;8.80;99.90;;;;;;4978828;28;20046;-66
2022/11/12 10:43:03;;;;;;;20.33;14.77;;;8.80;99.90;;;;;;4968882;28;20199;-66
2022/11/12 10:45:29;;;;;;;17.13;14.23;;;8.90;99.90;;;;;;4989439;28;20570;-66
2022/11/12 10:47:56;;;;;;;17.90;13.38;;;8.90;99.90;;;;;;4985159;28;20047;-66
2022/11/12 10:50:27;;;;;;;17.77;14.73;;;8.90;99.90;;;;;;4998854;28;20050;-66
2022/11/12 10:53:05;;;;;;;27.75;19.48;;;8.90;99.90;;;;;;4989013;28;20049;-65
2022/11/12 10:55:53;;;;;;;20.20;16.15;;;9.00;99.90;;;;;;4985624;28;20055;-65
2022/11/12 10:58:19;;;;;;;23.42;18.13;;;9.10;99.90;;;;;;4989477;28;20046;-66
2022/11/12 11:01:00;;;;;;;23.55;17.95;;;9.20;99.90;;;;;;4995742;28;20058;-65
2022/11/12 11:03:31;;;;;;;24.63;17.80;;;9.20;99.90;;;;;;5042905;28;20052;-65
2022/11/12 11:06:01;;;;;;;23.23;18.10;;;9.30;99.90;;;;;;5060852;28;20103;-65
2022/11/12 11:08:48;;;;;;;26.92;21.20;;;9.20;99.90;;;;;;5045462;28;20055;-65
2022/11/12 11:11:21;;;;;;;20.45;16.73;;;9.20;99.90;;;;;;5058562;28;20044;-66
2022/11/12 11:13:48;;;;;;;23.40;16.73;;;9.20;99.90;;;;;;5047132;28;20136;-65
2022/11/12 11:16:23;;;;;;;21.17;15.68;;;9.30;99.90;;;;;;5070048;28;20075;-65
2022/11/12 11:19:02;;;;;;;24.08;16.48;;;9.30;99.90;;;;;;5006832;28;20086;-65
2022/11/12 11:21:49;;;;;;;22.20;16.73;;;9.50;99.90;;;;;;5045389;28;20408;-66
2022/11/12 11:24:21;;;;;;;22.08;15.65;;;9.60;99.90;;;;;;5059620;28;20052;-65
2022/11/12 11:27:08;;;;;;;23.17;15.00;;;9.80;99.90;;;;;;5053541;28;20052;-66
2022/11/12 11:29:50;;;;;;;21.25;15.48;;;10.00;99.90;;;;;;5068058;28;20052;-65
2022/11/12 11:32:28;;;;;;;19.30;15.00;;;10.20;99.90;;;;;;5043470;28;20058;-65
2022/11/12 11:35:12;;;;;;;20.70;15.52;;;10.20;99.90;;;;;;5051310;28;20500;-65
2022/11/12 11:37:52;;;;;;;19.77;15.32;;;10.30;99.90;;;;;;5030851;28;20037;-65
2022/11/12 11:40:34;;;;;;;17.88;14.20;;;10.30;99.90;;;;;;5005611;28;20049;-65
2022/11/12 11:43:32;;;;;;;21.27;15.95;;;10.40;99.90;;;;;;5012349;28;20652;-66
2022/11/12 11:46:04;;;;;;;19.35;14.57;;;10.40;99.90;;;;;;5020102;28;20049;-65
2022/11/12 11:48:45;;;;;;;18.55;14.02;;;10.50;99.90;;;;;;5026933;28;20045;-65
2022/11/12 11:51:22;;;;;;;17.80;13.80;;;10.60;99.90;;;;;;5060324;28;20098;-66
2022/11/12 11:53:59;;;;;;;20.05;15.02;;;10.60;99.90;;;;;;5042877;28;20048;-66
2022/11/12 11:56:32;;;;;;;18.85;13.35;;;10.70;99.90;;;;;;5058124;28;20053;-65
2022/11/12 11:59:03;;;;;;;19.98;14.85;;;10.80;99.90;;;;;;5046750;28;20178;-65
2022/11/12 12:01:55;;;;;;;19.73;14.77;;;10.80;99.90;;;;;;5050854;28;20059;-65
2022/11/12 12:04:26;;;;;;;20.38;14.55;;;10.90;99.90;;;;;;4999478;28;20060;-65
2022/11/12 12:07:27;;;;;;;17.42;14.20;;;11.00;99.90;;;;;;5042450;28;20292;-65
2022/11/12 12:10:14;;;;;;;17.75;13.85;;;11.10;99.90;;;;;;5004423;28;20046;-65
2022/11/12 12:12:56;;;;;;;21.73;15.80;;;11.20;99.90;;;;;;5034224;28;20080;-65
2022/11/12 12:15:25;;;;;;;18.17;14.68;;;11.30;99.90;;;;;;5025357;28;20072;-65
2022/11/12 12:18:18;;;;;;;17.75;13.90;;;11.40;99.90;;;;;;5023209;28;20057;-65
2022/11/12 12:21:08;;;;;;;19.85;13.93;;;11.50;99.90;;;;;;5017541;28;20063;-65
2022/11/12 12:23:56;;;;;;;16.40;13.18;;;11.50;99.90;;;;;;5037286;28;20048;-65
2022/11/12 12:26:34;;;;;;;17.27;12.20;;;11.50;99.90;;;;;;5060097;28;20057;-65
2022/11/12 12:29:21;;;;;;;16.83;12.80;;;11.50;99.90;;;;;;5055545;28;20055;-65
2022/11/12 12:31:52;;;;;;;20.70;14.57;;;11.50;99.90;;;;;;5050356;28;20061;-65
2022/11/12 12:34:31;;;;;;;17.50;13.93;;;11.40;99.90;;;;;;5046869;28;20432;-65
2022/11/12 12:37:24;;;;;;;17.13;13.40;;;11.50;99.90;;;;;;5028668;28;20460;-66
2022/11/12 12:40:24;;;;;;;19.85;13.27;;;11.50;99.90;;;;;;5025777;28;20056;-67
2022/11/12 12:43:03;;;;;;;;;;;11.60;99.90;;;;;;5044649;28;20373;-65
2022/11/12 12:45:42;;;;;;;18.20;13.98;;;11.60;99.90;;;;;;5060944;28;19925;-66
2022/11/12 12:48:41;;;;;;;18.02;13.90;;;11.60;99.90;;;;;;5039614;28;20160;-65
2022/11/12 12:51:07;;;;;;;17.65;13.82;;;11.60;99.90;;;;;;5029141;28;20110;-65
2022/11/12 12:53:35;;;;;;;18.67;13.68;;;11.60;99.90;;;;;;5017746;28;20111;-65
2022/11/12 12:56:06;;;;;;;15.05;13.10;;;11.60;99.90;;;;;;5050327;28;20454;-65
2022/11/12 12:58:37;;;;;;;20.63;13.15;;;11.70;99.90;;;;;;5033688;28;20048;-66
2022/11/12 13:01:08;;;;;;;17.30;13.02;;;11.70;99.90;;;;;;5049791;28;20049;-66
2022/11/12 13:03:42;;;;;;;19.20;13.73;;;11.70;99.90;;;;;;5033302;28;20048;-66
2022/11/12 13:06:21;;;;;;;17.40;13.45;;;11.80;99.90;;;;;;5061342;28;20616;-68
2022/11/12 13:08:58;;;;;;;19.88;14.13;;;11.80;99.90;;;;;;5029905;28;20052;-66
2022/11/12 13:14:35;;;;;;;16.52;12.77;;;12.10;99.90;;;;;;5055139;28;20044;-69
2022/11/12 13:17:03;;;;;;;18.63;13.45;;;12.30;99.90;;;;;;5034248;28;20077;-67
2022/11/12 13:19:37;;;;;;;18.02;13.35;;;12.60;99.90;;;;;;5029118;28;20059;-67
2022/11/12 13:22:18;;;;;;;19.98;13.80;;;12.90;99.90;;;;;;5042370;28;20042;-68
2022/11/12 13:25:15;;;;;;;18.55;14.07;;;13.20;99.90;;;;;;5043371;28;20060;-67
2022/11/12 13:27:44;;;;;;;16.77;12.70;;;13.30;99.90;;;;;;5039037;28;20053;-67